createdAt,value
2023-01-17T00:02:02.242Z,3.15
2023-01-17T00:04:47.771Z,3.13
2023-01-17T00:07:34.745Z,3.14
2023-01-17T00:10:03.192Z,3.14
2023-01-17T00:12:30.819Z,3.14
2023-01-17T00:14:58.275Z,3.14
2023-01-17T00:17:25.837Z,3.17
2023-01-17T00:20:11.223Z,3.17
2023-01-17T00:22:56.780Z,3.18
2023-01-17T00:25:46.267Z,3.19
2023-01-17T00:28:13.008Z,3.22
2023-01-17T00:30:39.692Z,3.26
2023-01-17T00:33:06.490Z,3.27
2023-01-17T00:35:33.357Z,3.27
2023-01-17T00:38:10.725Z,3.28
2023-01-17T00:40:38.746Z,3.30
2023-01-17T00:43:24.317Z,3.32
2023-01-17T00:46:10.083Z,3.35
2023-01-17T00:48:56.017Z,3.36
2023-01-17T00:51:42.149Z,3.38
2023-01-17T00:54:27.724Z,3.38
2023-01-17T00:57:13.292Z,3.39
2023-01-17T00:59:58.928Z,3.40
2023-01-17T01:02:44.960Z,3.42
2023-01-17T01:05:31.173Z,3.43
2023-01-17T01:08:16.873Z,3.44
2023-01-17T01:11:02.972Z,3.46
2023-01-17T01:13:48.613Z,3.47
2023-01-17T01:16:36.424Z,3.50
2023-01-17T01:19:23.060Z,3.54
2023-01-17T01:22:08.983Z,3.56
2023-01-17T01:24:54.400Z,3.57
2023-01-17T01:27:39.875Z,3.57
2023-01-17T01:30:26.519Z,3.57
2023-01-17T01:33:11.913Z,3.58
2023-01-17T01:35:38.662Z,3.59
2023-01-17T01:38:05.394Z,3.61
2023-01-17T01:40:32.233Z,3.64
2023-01-17T01:43:00.006Z,3.65
2023-01-17T01:45:28.736Z,3.65
2023-01-17T01:48:02.449Z,3.67
2023-01-17T01:50:30.663Z,3.69
2023-01-17T01:52:59.005Z,3.71
2023-01-17T01:55:28.865Z,3.72
2023-01-17T01:57:57.655Z,3.72
2023-01-17T02:00:30.022Z,3.72
2023-01-17T02:02:59.434Z,3.72
2023-01-17T02:05:27.049Z,3.72
2023-01-17T02:08:08.971Z,3.73
2023-01-17T02:10:36.519Z,3.75
2023-01-17T02:13:03.533Z,3.76
2023-01-17T02:15:46.596Z,3.78
2023-01-17T02:18:16.515Z,3.80
2023-01-17T02:20:58.689Z,3.82
2023-01-17T02:23:38.346Z,3.82
2023-01-17T02:26:27.241Z,3.83
2023-01-17T02:28:56.888Z,3.81
2023-01-17T02:31:32.597Z,3.82
2023-01-17T02:34:41.612Z,3.82
2023-01-17T02:37:13.260Z,3.81
2023-01-17T02:39:43.314Z,3.80
2023-01-17T02:42:12.888Z,3.82
2023-01-17T02:44:41.018Z,3.83
2023-01-17T02:47:37.409Z,3.81
2023-01-17T02:50:16.218Z,3.80
2023-01-17T02:52:51.110Z,3.80
2023-01-17T02:55:30.780Z,3.81
2023-01-17T02:58:00.623Z,3.81
2023-01-17T03:00:44.361Z,3.81
2023-01-17T03:03:20.334Z,3.81
2023-01-17T03:05:49.049Z,3.81
2023-01-17T03:08:15.854Z,3.80
2023-01-17T03:10:42.607Z,3.80
2023-01-17T03:13:09.343Z,3.77
2023-01-17T03:15:36.080Z,3.78
2023-01-17T03:18:05.120Z,3.80
2023-01-17T03:20:33.533Z,3.78
2023-01-17T03:23:00.394Z,3.78
2023-01-17T03:25:27.394Z,3.78
2023-01-17T03:27:54.413Z,3.78
2023-01-17T03:30:23.157Z,3.79
2023-01-17T03:32:50.112Z,3.83
2023-01-17T03:35:16.900Z,3.82
2023-01-17T03:37:43.614Z,3.82
2023-01-17T03:40:10.830Z,3.83
2023-01-17T03:42:37.543Z,3.85
2023-01-17T03:45:05.005Z,3.87
2023-01-17T03:47:31.715Z,3.88
2023-01-17T03:49:58.485Z,3.88
2023-01-17T03:52:25.200Z,3.89
2023-01-17T03:54:51.946Z,3.89
2023-01-17T03:57:18.667Z,3.88
2023-01-17T03:59:47.179Z,3.87
2023-01-17T08:17:55.090Z,4.92
2023-01-17T08:20:22.047Z,5.01
2023-01-17T08:22:48.835Z,4.98
2023-01-17T08:25:15.669Z,4.96
2023-01-17T08:27:42.665Z,4.92
2023-01-17T08:30:10.177Z,4.88
2023-01-17T08:32:40.778Z,4.83
2023-01-17T08:35:09.047Z,4.77
2023-01-17T08:37:37.828Z,4.76
2023-01-17T08:40:06.035Z,4.72
2023-01-17T08:42:37.469Z,4.71
2023-01-17T08:45:05.506Z,4.69
2023-01-17T08:47:33.370Z,4.67
2023-01-17T08:50:01.124Z,4.67
2023-01-17T08:52:28.463Z,4.66
2023-01-17T08:54:55.333Z,4.65
2023-01-17T08:57:22.289Z,4.62
2023-01-17T08:59:49.084Z,4.62
2023-01-17T09:02:17.145Z,4.60
2023-01-17T09:04:47.611Z,4.59
2023-01-17T09:07:15.047Z,4.56
2023-01-17T09:09:41.824Z,4.53
2023-01-17T09:12:08.750Z,4.51
2023-01-17T09:14:35.546Z,4.50
2023-01-17T09:17:02.360Z,4.52
2023-01-17T09:19:29.268Z,4.52
2023-01-17T09:21:56.057Z,4.51
2023-01-17T09:24:22.973Z,4.51
2023-01-17T09:26:50.083Z,4.52
2023-01-17T09:29:17.989Z,4.53
2023-01-17T09:31:47.290Z,4.55
2023-01-17T09:34:15.229Z,4.56
2023-01-17T09:36:42.436Z,4.56
2023-01-17T09:39:09.916Z,4.59
2023-01-17T09:41:59.762Z,4.60
2023-01-17T09:44:38.856Z,4.60
2023-01-17T09:47:43.684Z,4.59
2023-01-17T09:50:50.509Z,4.59
2023-01-17T09:53:20.810Z,4.61
2023-01-17T09:55:54.783Z,4.60
2023-01-17T09:58:26.233Z,4.60
2023-01-17T14:16:28.992Z,6.24
2023-01-17T14:18:55.835Z,6.39
2023-01-17T14:21:31.606Z,6.39
2023-01-17T14:24:10.690Z,6.38
2023-01-17T14:26:42.050Z,6.37
2023-01-17T14:29:48.392Z,6.35
2023-01-17T14:32:17.937Z,6.35
2023-01-17T14:34:45.762Z,6.34
2023-01-17T14:37:24.824Z,6.35
2023-01-17T14:39:51.669Z,6.34
2023-01-17T14:42:21.121Z,6.32
2023-01-17T14:44:49.796Z,6.31
2023-01-17T14:47:16.569Z,6.30
2023-01-17T14:49:43.827Z,6.30
2023-01-17T14:52:15.093Z,6.30
2023-01-17T14:54:49.718Z,6.30
2023-01-17T14:57:26.655Z,6.29
2023-01-17T15:00:13.760Z,6.27
2023-01-17T15:02:42.560Z,6.28
2023-01-17T15:05:13.378Z,6.27
2023-01-17T15:07:40.457Z,6.28
2023-01-17T15:10:12.890Z,6.27
2023-01-17T15:12:39.735Z,6.29
2023-01-17T15:15:35.257Z,6.31
2023-01-17T15:18:14.329Z,6.34
2023-01-17T15:20:51.955Z,6.36
2023-01-17T15:23:22.800Z,6.38
2023-01-17T15:25:50.454Z,6.41
2023-01-17T15:28:17.296Z,6.43
2023-01-17T15:31:17.338Z,6.46
2023-01-17T15:33:46.818Z,6.52
2023-01-17T15:36:33.209Z,6.54
2023-01-17T15:39:01.716Z,6.57
2023-01-17T15:41:31.573Z,6.62
2023-01-17T15:43:58.850Z,6.65
2023-01-17T15:46:30.919Z,6.69
2023-01-17T15:49:29.256Z,6.72
2023-01-17T15:52:02.184Z,6.76
2023-01-17T15:54:28.951Z,6.80
2023-01-17T15:57:38.065Z,6.83
2023-01-17T20:06:08.998Z,7.82
2023-01-17T20:08:36.160Z,7.82
2023-01-17T20:11:04.667Z,7.80
2023-01-17T20:13:33.756Z,7.82
2023-01-17T20:16:02.419Z,7.81
2023-01-17T20:18:33.048Z,7.81
2023-01-17T20:21:08.334Z,7.80
2023-01-17T20:23:36.145Z,7.81
2023-01-17T20:26:04.165Z,7.81
2023-01-17T20:28:34.966Z,7.79
2023-01-17T20:31:08.561Z,7.78
2023-01-17T20:33:43.491Z,7.79
2023-01-17T20:36:12.290Z,7.79
2023-01-17T20:38:44.812Z,7.80
2023-01-17T20:41:20.514Z,7.79
2023-01-17T20:43:49.079Z,7.80
2023-01-17T20:46:16.947Z,7.80
2023-01-17T20:48:48.243Z,7.80
2023-01-17T20:51:15.346Z,7.81
2023-01-17T20:53:43.106Z,7.81
2023-01-17T20:56:11.540Z,7.81
2023-01-17T20:58:38.179Z,7.81
2023-01-17T21:01:05.873Z,7.81
2023-01-17T21:03:33.287Z,7.81
2023-01-17T21:06:01.315Z,7.80
2023-01-17T21:08:32.150Z,7.79
2023-01-17T21:10:58.887Z,7.80
2023-01-17T21:28:46.415Z,8.18
2023-01-17T21:31:24.973Z,8.20
2023-01-17T21:33:55.698Z,8.15
2023-01-17T21:36:24.423Z,8.12
2023-01-17T21:38:52.905Z,8.06
2023-01-17T21:41:20.731Z,8.01
2023-01-17T21:43:48.329Z,7.97
2023-01-17T21:46:15.257Z,7.95
2023-01-17T21:48:44.483Z,7.94
2023-01-17T21:51:11.419Z,7.92
2023-01-17T21:53:39.283Z,7.92
2023-01-17T21:56:26.543Z,7.90
2023-01-17T21:58:55.109Z,7.87
2023-01-17T22:01:23.001Z,7.85
2023-01-17T22:03:57.811Z,7.84
2023-01-17T22:06:29.229Z,7.81
2023-01-17T22:08:56.331Z,7.78
2023-01-17T22:11:24.411Z,7.78
2023-01-17T22:13:51.338Z,7.79
2023-01-17T22:16:19.954Z,7.80
2023-01-17T22:18:46.768Z,7.81
2023-01-17T22:21:21.243Z,7.81
2023-01-17T22:23:53.032Z,7.80
2023-01-17T22:26:21.183Z,7.78
2023-01-17T22:28:47.950Z,7.77
2023-01-17T22:31:21.859Z,7.76
2023-01-17T22:33:54.031Z,7.75
2023-01-17T22:36:20.833Z,7.75
2023-01-17T22:38:48.221Z,7.75
2023-01-17T22:41:20.390Z,7.76
2023-01-17T22:43:48.655Z,7.77
2023-01-17T22:46:20.480Z,7.76
2023-01-17T22:48:47.314Z,7.75
2023-01-17T22:51:15.296Z,7.75
2023-01-17T22:53:42.956Z,7.75
2023-01-17T22:56:12.711Z,7.74
2023-01-17T22:58:42.316Z,7.75
2023-01-17T23:01:11.007Z,7.77
2023-01-17T23:03:38.085Z,7.78
2023-01-17T23:06:12.131Z,7.76
2023-01-17T23:08:39.973Z,7.74
2023-01-17T23:11:41.184Z,7.72
2023-01-17T23:14:30.714Z,7.71
2023-01-17T23:17:17.740Z,7.71
2023-01-17T23:19:52.543Z,7.69
2023-01-17T23:22:21.490Z,7.68
2023-01-17T23:24:51.293Z,7.68
2023-01-17T23:27:46.480Z,7.68
2023-01-17T23:30:14.288Z,7.70
2023-01-17T23:32:44.647Z,7.70
2023-01-17T23:35:11.862Z,7.70
2023-01-17T23:37:57.532Z,7.68
2023-01-17T23:40:24.339Z,7.68
2023-01-17T23:43:10.026Z,7.67
2023-01-17T23:45:37.826Z,7.68
2023-01-17T23:48:09.639Z,7.71
2023-01-17T23:50:40.782Z,7.69
2023-01-17T23:53:08.532Z,7.67
2023-01-17T23:55:40.240Z,7.66
2023-01-17T23:58:08.081Z,7.62
